createdAt,value
2023-03-14T00:00:15.305Z,9.90
2023-03-14T00:02:42.386Z,9.90
2023-03-14T00:05:09.931Z,9.90
2023-03-14T00:07:37.804Z,9.90
2023-03-14T00:10:12.213Z,9.80
2023-03-14T00:12:39.236Z,9.70
2023-03-14T00:15:08.078Z,9.70
2023-03-14T00:17:35.966Z,9.60
2023-03-14T00:20:09.455Z,9.50
2023-03-14T00:22:37.057Z,9.50
2023-03-14T00:25:04.635Z,9.40
2023-03-14T00:27:32.146Z,9.40
2023-03-14T00:29:59.086Z,9.40
2023-03-14T00:32:26.134Z,9.40
2023-03-14T00:34:52.986Z,9.40
2023-03-14T00:37:19.901Z,9.40
2023-03-14T00:39:46.874Z,9.40
2023-03-14T00:42:13.783Z,9.30
2023-03-14T00:44:40.674Z,9.30
2023-03-14T00:47:07.796Z,9.40
2023-03-14T00:49:34.984Z,9.40
2023-03-14T00:52:01.884Z,9.40
2023-03-14T00:54:28.791Z,9.40
2023-03-14T00:56:56.190Z,9.40
2023-03-14T00:59:23.127Z,9.40
2023-03-14T01:01:50.130Z,9.40
2023-03-14T01:04:17.129Z,9.50
2023-03-14T01:06:44.004Z,9.40
2023-03-14T01:09:11.266Z,9.40
2023-03-14T01:11:38.281Z,9.40
2023-03-14T01:14:05.567Z,9.40
2023-03-14T01:16:34.668Z,9.50
2023-03-14T01:19:01.825Z,9.50
2023-03-14T01:21:30.592Z,9.50
2023-03-14T01:23:58.781Z,9.50
2023-03-14T01:26:26.538Z,9.60
2023-03-14T01:28:54.594Z,9.60
2023-03-14T01:31:21.512Z,9.60
2023-03-14T01:33:48.546Z,9.60
2023-03-14T01:36:15.737Z,9.60
2023-03-14T01:38:43.010Z,9.60
2023-03-14T01:41:13.498Z,9.60
2023-03-14T01:43:40.502Z,9.50
2023-03-14T01:46:07.463Z,9.50
2023-03-14T01:48:46.440Z,9.60
2023-03-14T01:51:16.509Z,9.60
2023-03-14T01:53:44.239Z,9.60
2023-03-14T01:56:13.427Z,9.60
2023-03-14T01:58:43.088Z,9.60
2023-03-14T02:01:10.902Z,9.60
2023-03-14T02:03:43.122Z,9.60
2023-03-14T02:06:10.223Z,9.60
2023-03-14T02:08:38.357Z,9.70
2023-03-14T02:11:05.406Z,9.70
2023-03-14T02:13:32.302Z,9.70
2023-03-14T02:15:59.261Z,9.80
2023-03-14T02:18:26.665Z,9.80
2023-03-14T02:21:10.112Z,9.80
2023-03-14T02:23:52.050Z,9.90
2023-03-14T02:26:28.907Z,9.90
2023-03-14T02:28:55.880Z,9.90
2023-03-14T02:31:23.542Z,9.90
2023-03-14T02:33:50.939Z,10.00
2023-03-14T02:36:18.830Z,10.00
2023-03-14T02:38:55.994Z,10.10
2023-03-14T02:41:23.122Z,10.10
2023-03-14T02:43:50.044Z,10.10
2023-03-14T02:46:21.620Z,10.20
2023-03-14T02:48:54.577Z,10.20
2023-03-14T02:51:22.461Z,10.20
2023-03-14T02:53:49.329Z,10.20
2023-03-14T02:56:16.286Z,10.20
2023-03-14T02:58:43.183Z,10.30
2023-03-14T03:01:10.121Z,10.30
2023-03-14T03:03:39.266Z,10.30
2023-03-14T03:06:06.407Z,10.30
2023-03-14T03:08:33.353Z,10.40
2023-03-14T03:11:00.393Z,10.40
2023-03-14T03:13:27.904Z,10.40
2023-03-14T03:15:54.880Z,10.40
2023-03-14T03:18:22.059Z,10.40
2023-03-14T03:20:48.962Z,10.40
2023-03-14T03:23:16.053Z,10.40
2023-03-14T03:25:43.096Z,10.40
2023-03-14T03:28:10.054Z,10.40
2023-03-14T03:30:40.579Z,10.40
2023-03-14T03:33:07.558Z,10.50
2023-03-14T03:35:34.603Z,10.50
2023-03-14T03:38:01.554Z,10.50
2023-03-14T03:40:28.490Z,10.50
2023-03-14T03:42:55.547Z,10.60
2023-03-14T03:45:22.598Z,10.60
2023-03-14T03:47:49.526Z,10.50
2023-03-14T03:50:16.592Z,10.40
2023-03-14T03:52:43.515Z,10.40
2023-03-14T03:55:10.512Z,10.40
2023-03-14T03:57:37.423Z,10.30
2023-03-14T04:00:06.226Z,10.30
2023-03-14T04:02:33.264Z,10.30
2023-03-14T04:05:00.364Z,10.30
2023-03-14T04:07:27.385Z,10.30
2023-03-14T04:09:54.315Z,10.30
2023-03-14T04:12:21.165Z,10.30
2023-03-14T04:14:48.457Z,10.30
2023-03-14T04:17:15.374Z,10.30
2023-03-14T04:19:43.309Z,10.30
2023-03-14T04:22:10.352Z,10.30
2023-03-14T04:24:37.213Z,10.30
2023-03-14T04:27:04.198Z,10.30
2023-03-14T04:29:31.090Z,10.30
2023-03-14T04:31:58.038Z,10.30
2023-03-14T04:34:25.000Z,10.30
2023-03-14T04:36:51.936Z,10.40
2023-03-14T04:39:18.881Z,10.40
2023-03-14T04:41:46.813Z,10.40
2023-03-14T04:44:13.719Z,10.40
2023-03-14T04:46:40.723Z,10.40
2023-03-14T04:49:07.721Z,10.40
2023-03-14T04:51:34.616Z,10.40
2023-03-14T04:54:01.536Z,10.40
2023-03-14T04:56:28.909Z,10.40
2023-03-14T04:58:55.963Z,10.40
2023-03-14T05:01:23.063Z,10.40
2023-03-14T05:03:50.125Z,10.40
2023-03-14T05:06:16.999Z,10.40
2023-03-14T05:08:43.957Z,10.40
2023-03-14T05:11:11.409Z,10.30
2023-03-14T05:13:40.206Z,10.30
2023-03-14T05:16:08.372Z,10.30
2023-03-14T05:18:35.340Z,10.30
2023-03-14T05:21:02.261Z,10.30
2023-03-14T05:23:29.222Z,10.30
2023-03-14T05:25:56.132Z,10.30
2023-03-14T05:28:23.092Z,10.30
2023-03-14T05:30:49.990Z,10.30
2023-03-14T05:33:16.894Z,10.30
2023-03-14T05:35:44.234Z,10.40
2023-03-14T05:38:11.232Z,10.50
2023-03-14T05:40:38.338Z,10.60
2023-03-14T05:43:05.320Z,10.70
2023-03-14T05:45:34.452Z,10.70
2023-03-14T05:48:01.519Z,10.80
2023-03-14T05:50:28.423Z,10.90
2023-03-14T05:52:55.281Z,10.90
2023-03-14T05:55:22.178Z,10.90
2023-03-14T05:57:49.013Z,11.00
2023-03-14T06:00:16.191Z,11.00
2023-03-14T06:02:43.162Z,11.00
2023-03-14T06:05:10.110Z,11.00
2023-03-14T06:07:38.435Z,11.00
2023-03-14T06:10:05.619Z,11.10
2023-03-14T06:12:32.514Z,11.10
2023-03-14T06:14:59.628Z,11.10
2023-03-14T06:17:26.728Z,11.10
2023-03-14T06:19:53.651Z,11.10
2023-03-14T06:22:21.001Z,11.10
2023-03-14T06:24:47.880Z,11.10
2023-03-14T06:27:14.870Z,11.10
2023-03-14T06:29:42.135Z,11.10
2023-03-14T06:32:09.026Z,11.10
2023-03-14T06:34:36.011Z,11.10
2023-03-14T06:37:02.905Z,11.10
2023-03-14T06:39:30.116Z,11.00
2023-03-14T06:41:58.001Z,11.00
2023-03-14T06:44:25.586Z,11.00
2023-03-14T06:46:52.510Z,10.90
2023-03-14T06:49:19.450Z,11.00
2023-03-14T06:51:46.344Z,10.90
2023-03-14T06:54:14.566Z,10.90
2023-03-14T06:56:42.780Z,10.90
2023-03-14T06:59:10.153Z,10.90
2023-03-14T07:01:37.643Z,10.90
2023-03-14T07:04:05.793Z,10.90
2023-03-14T07:06:34.696Z,11.00
2023-03-14T07:09:03.806Z,11.00
2023-03-14T07:11:32.526Z,11.00
2023-03-14T07:14:00.462Z,11.00
2023-03-14T07:16:30.265Z,11.00
2023-03-14T07:18:57.968Z,10.90
2023-03-14T07:21:25.762Z,11.00
2023-03-14T07:23:52.712Z,11.00
2023-03-14T07:26:19.663Z,11.00
2023-03-14T07:28:46.614Z,11.00
2023-03-14T07:31:13.569Z,11.00
2023-03-14T07:33:40.510Z,11.00
2023-03-14T07:36:07.660Z,11.10
2023-03-14T07:38:34.598Z,11.10
2023-03-14T07:41:02.299Z,11.10
2023-03-14T07:43:29.294Z,11.20
2023-03-14T07:45:59.538Z,11.20
2023-03-14T07:48:28.048Z,11.20
2023-03-14T07:50:55.903Z,11.20
2023-03-14T07:53:23.146Z,11.20
2023-03-14T07:55:51.410Z,11.30
2023-03-14T07:58:18.335Z,11.30
2023-03-14T08:00:45.258Z,11.30
2023-03-14T08:03:12.127Z,11.30
2023-03-14T08:05:42.813Z,11.30
2023-03-14T08:08:09.857Z,11.30
2023-03-14T08:10:36.796Z,11.40
2023-03-14T08:13:03.668Z,11.40
2023-03-14T08:15:31.682Z,11.40
2023-03-14T08:17:58.738Z,11.40
2023-03-14T08:20:26.949Z,11.30
2023-03-14T08:22:54.095Z,11.30
2023-03-14T08:25:20.985Z,11.30
2023-03-14T08:27:47.793Z,11.30
2023-03-14T08:30:17.462Z,11.20
2023-03-14T08:32:44.468Z,11.20
2023-03-14T08:35:11.984Z,11.20
2023-03-14T08:37:38.840Z,11.10
2023-03-14T08:40:11.019Z,11.10
2023-03-14T08:42:38.818Z,11.00
2023-03-14T08:45:06.303Z,11.00
2023-03-14T08:47:33.145Z,10.90
2023-03-14T08:50:00.110Z,10.90
2023-03-14T08:52:27.144Z,10.90
2023-03-14T08:54:54.036Z,10.90
2023-03-14T08:57:22.915Z,10.80
2023-03-14T08:59:49.799Z,10.80
2023-03-14T09:02:16.693Z,10.80
2023-03-14T09:04:43.610Z,10.70
2023-03-14T09:07:10.526Z,10.70
2023-03-14T09:09:37.778Z,10.70
2023-03-14T09:12:05.873Z,10.60
2023-03-14T09:14:33.200Z,10.60
2023-03-14T09:17:00.101Z,10.60
2023-03-14T09:19:26.952Z,10.50
2023-03-14T09:21:53.867Z,10.50
2023-03-14T09:24:20.747Z,10.50
2023-03-14T09:26:47.663Z,10.40
2023-03-14T09:29:14.559Z,10.40
2023-03-14T09:31:41.529Z,10.40
2023-03-14T09:34:08.399Z,10.30
2023-03-14T09:36:35.288Z,10.30
2023-03-14T09:39:02.160Z,10.30
2023-03-14T09:41:31.029Z,10.20
2023-03-14T09:44:03.465Z,10.20
2023-03-14T09:46:31.886Z,10.20
2023-03-14T09:48:58.784Z,10.10
2023-03-14T09:51:27.002Z,10.10
2023-03-14T09:53:54.112Z,10.10
2023-03-14T09:56:22.661Z,10.10
2023-03-14T09:58:52.745Z,10.00
2023-03-14T10:01:21.854Z,10.00
2023-03-14T10:03:48.821Z,10.00
2023-03-14T10:06:20.932Z,10.00
2023-03-14T10:08:47.915Z,10.00
2023-03-14T10:11:18.796Z,9.90
2023-03-14T10:14:08.709Z,9.90
2023-03-14T10:16:42.875Z,9.90
2023-03-14T10:19:14.378Z,9.90
2023-03-14T10:21:41.300Z,10.00
2023-03-14T10:24:09.158Z,10.00
2023-03-14T10:26:36.189Z,10.00
2023-03-14T10:29:04.864Z,10.00
2023-03-14T10:31:47.451Z,10.00
2023-03-14T10:34:17.085Z,9.90
2023-03-14T10:36:43.987Z,10.00
2023-03-14T10:39:26.734Z,10.00
2023-03-14T10:41:55.047Z,10.00
2023-03-14T10:44:26.914Z,10.00
2023-03-14T10:47:03.660Z,10.00
2023-03-14T10:49:37.972Z,9.90
2023-03-14T10:52:14.411Z,9.90
2023-03-14T10:54:41.296Z,9.90
2023-03-14T10:57:08.408Z,9.90
2023-03-14T10:59:36.936Z,9.90
2023-03-14T11:02:16.070Z,9.90
2023-03-14T11:04:42.995Z,9.90
2023-03-14T11:07:12.914Z,9.90
2023-03-14T11:09:42.965Z,9.90
2023-03-14T11:12:29.774Z,9.90
2023-03-14T11:15:01.253Z,9.90
2023-03-14T11:17:28.084Z,9.90
2023-03-14T11:19:56.086Z,9.90
2023-03-14T11:22:23.885Z,9.90
2023-03-14T11:25:09.429Z,9.90
2023-03-14T11:27:42.858Z,9.90
2023-03-14T11:30:18.900Z,9.90
2023-03-14T11:32:57.441Z,10.00
2023-03-14T11:35:27.734Z,10.00
2023-03-14T11:38:05.205Z,10.00
2023-03-14T11:40:32.482Z,10.10
2023-03-14T11:43:15.085Z,10.10
2023-03-14T11:45:43.352Z,10.20
2023-03-14T11:48:20.017Z,10.20
2023-03-14T11:50:48.740Z,10.30
2023-03-14T11:53:19.325Z,10.30
2023-03-14T11:55:46.973Z,10.30
2023-03-14T11:58:34.076Z,10.30
2023-03-14T12:01:04.276Z,10.40
2023-03-14T12:03:44.862Z,10.40
2023-03-14T12:06:21.340Z,10.40
2023-03-14T12:08:58.707Z,10.40
2023-03-14T12:11:28.531Z,10.40
2023-03-14T12:13:55.608Z,10.50
2023-03-14T12:16:25.401Z,10.50
2023-03-14T12:18:53.174Z,10.60
2023-03-14T12:21:20.508Z,10.60
2023-03-14T12:23:50.416Z,10.60
2023-03-14T12:26:19.022Z,10.70
2023-03-14T12:28:51.376Z,10.70
2023-03-14T12:31:33.542Z,10.70
2023-03-14T12:34:12.443Z,10.80
2023-03-14T12:36:45.422Z,10.80
2023-03-14T12:39:31.051Z,10.80
2023-03-14T12:42:20.991Z,10.80
2023-03-14T12:44:49.151Z,10.90
2023-03-14T12:47:19.240Z,10.90
2023-03-14T12:49:58.483Z,10.90
2023-03-14T12:52:43.973Z,10.90
2023-03-14T12:55:16.260Z,10.90
2023-03-14T12:57:43.173Z,10.90
2023-03-14T13:00:23.536Z,10.90
2023-03-14T13:02:51.252Z,10.90
2023-03-14T13:05:26.344Z,11.00
2023-03-14T13:07:58.482Z,11.00
2023-03-14T13:10:34.268Z,11.00
2023-03-14T13:13:28.802Z,11.00
2023-03-14T13:16:12.469Z,11.00
2023-03-14T13:18:44.624Z,11.00
2023-03-14T13:21:14.680Z,11.10
2023-03-14T13:23:41.610Z,11.10
2023-03-14T13:26:14.610Z,11.10
2023-03-14T13:28:43.164Z,11.10
2023-03-14T13:31:21.117Z,11.10
2023-03-14T13:33:47.998Z,11.10
2023-03-14T13:36:22.757Z,11.10
2023-03-14T13:38:56.337Z,11.10
2023-03-14T13:41:24.961Z,11.10
2023-03-14T13:43:51.954Z,11.10
2023-03-14T13:46:23.170Z,11.10
2023-03-14T13:48:59.532Z,11.10
2023-03-14T13:51:30.568Z,11.10
2023-03-14T13:53:57.560Z,11.00
2023-03-14T13:56:25.853Z,11.00
2023-03-14T13:58:53.477Z,11.00
2023-03-14T14:01:29.075Z,11.00
2023-03-14T14:03:57.472Z,11.10
2023-03-14T14:06:24.394Z,11.10
2023-03-14T14:08:51.724Z,11.10
2023-03-14T14:11:44.880Z,11.10
2023-03-14T14:14:21.347Z,11.10
2023-03-14T14:16:48.758Z,11.20
2023-03-14T14:19:17.130Z,11.10
2023-03-14T14:21:44.189Z,11.20
2023-03-14T14:24:13.955Z,11.20
2023-03-14T14:26:41.907Z,11.30
2023-03-14T14:29:27.641Z,11.30
2023-03-14T14:32:10.554Z,11.40
2023-03-14T14:34:56.298Z,11.40
2023-03-14T14:37:23.780Z,11.40
2023-03-14T14:39:52.524Z,11.50
2023-03-14T14:42:23.218Z,11.50
2023-03-14T14:44:52.495Z,11.50
2023-03-14T14:47:20.986Z,11.50
2023-03-14T14:49:48.645Z,11.50
2023-03-14T14:52:17.354Z,11.60
2023-03-14T14:54:49.696Z,11.60
2023-03-14T14:57:29.590Z,11.60
2023-03-14T14:59:57.437Z,11.60
2023-03-14T15:02:50.589Z,11.60
2023-03-14T15:05:18.792Z,11.70
2023-03-14T15:07:45.952Z,11.70
2023-03-14T15:10:13.650Z,11.70
2023-03-14T15:12:41.236Z,11.80
2023-03-14T15:15:08.709Z,11.80
2023-03-14T15:17:37.254Z,11.80
2023-03-14T15:20:08.194Z,11.90
2023-03-14T15:22:35.296Z,11.90
2023-03-14T15:25:02.135Z,11.90
2023-03-14T15:27:29.961Z,11.90
2023-03-14T15:29:56.857Z,11.90
2023-03-14T15:32:23.726Z,11.90
2023-03-14T15:34:50.711Z,11.90
2023-03-14T15:37:17.985Z,11.90
2023-03-14T15:39:44.862Z,11.90
2023-03-14T15:42:12.005Z,11.90
2023-03-14T15:44:40.201Z,11.90
2023-03-14T15:47:07.415Z,11.90
2023-03-14T15:49:34.331Z,11.90
2023-03-14T15:52:01.344Z,11.90
2023-03-14T15:54:29.501Z,11.90
2023-03-14T15:56:57.212Z,11.90
2023-03-14T15:59:24.934Z,11.90
2023-03-14T16:01:52.092Z,11.90
2023-03-14T16:04:19.260Z,11.90
2023-03-14T16:06:46.678Z,11.90
2023-03-14T16:09:13.804Z,11.80
2023-03-14T16:11:40.822Z,11.80
2023-03-14T16:14:07.794Z,11.80
2023-03-14T16:16:35.509Z,11.80
2023-03-14T16:19:03.328Z,11.80
2023-03-14T16:21:30.164Z,11.70
2023-03-14T16:23:57.088Z,11.70
2023-03-14T16:26:24.015Z,11.70
2023-03-14T16:28:50.879Z,11.70
2023-03-14T16:31:21.643Z,11.70
2023-03-14T16:33:49.204Z,11.70
2023-03-14T16:36:16.189Z,11.70
2023-03-14T16:38:44.168Z,11.60
2023-03-14T16:41:11.036Z,11.60
2023-03-14T16:43:38.041Z,11.60
2023-03-14T16:46:06.069Z,11.60
2023-03-14T16:48:33.233Z,11.60
2023-03-14T16:51:00.202Z,11.60
2023-03-14T16:53:31.092Z,11.50
2023-03-14T16:55:59.036Z,11.50
2023-03-14T16:58:26.355Z,11.50
2023-03-14T17:00:53.792Z,11.50
2023-03-14T17:03:20.837Z,11.50
2023-03-14T17:05:49.014Z,11.50
2023-03-14T17:08:17.019Z,11.50
2023-03-14T17:10:43.895Z,11.50
2023-03-14T17:13:10.913Z,11.50
2023-03-14T17:15:38.116Z,11.50
2023-03-14T17:18:05.844Z,11.50
2023-03-14T17:20:34.028Z,11.40
2023-03-14T17:23:00.990Z,11.30
2023-03-14T17:25:27.941Z,11.20
2023-03-14T17:27:56.699Z,11.10
2023-03-14T17:30:23.730Z,11.00
2023-03-14T17:32:52.166Z,10.90
2023-03-14T17:35:19.161Z,10.90
2023-03-14T17:37:45.998Z,10.80
2023-03-14T17:40:12.895Z,10.80
2023-03-14T17:42:39.876Z,10.70
2023-03-14T17:45:07.437Z,10.70
2023-03-14T17:47:34.424Z,10.70
2023-03-14T17:50:05.420Z,10.60
2023-03-14T17:52:37.044Z,10.60
2023-03-14T17:55:04.753Z,10.60
2023-03-14T17:57:32.123Z,10.60
2023-03-14T17:59:59.122Z,10.60
2023-03-14T18:02:26.359Z,10.50
2023-03-14T18:04:54.047Z,10.50
2023-03-14T18:07:21.063Z,10.50
2023-03-14T18:09:48.058Z,10.50
2023-03-14T18:12:15.340Z,10.50
2023-03-14T18:14:44.530Z,10.40
2023-03-14T18:17:15.458Z,10.40
2023-03-14T18:19:42.541Z,10.40
2023-03-14T18:22:09.491Z,10.40
2023-03-14T18:24:36.349Z,10.40
2023-03-14T18:27:03.360Z,10.50
2023-03-14T18:29:30.429Z,10.50
2023-03-14T18:31:58.577Z,10.50
2023-03-14T18:34:25.998Z,10.50
2023-03-14T18:36:53.395Z,10.50
2023-03-14T18:39:21.551Z,10.50
2023-03-14T18:41:48.481Z,10.50
2023-03-14T18:44:15.595Z,10.50
2023-03-14T18:46:42.671Z,10.50
2023-03-14T18:49:10.881Z,10.50
2023-03-14T18:51:39.553Z,10.50
2023-03-14T18:54:09.799Z,10.50
2023-03-14T18:56:37.764Z,10.50
2023-03-14T18:59:04.669Z,10.50
2023-03-14T19:01:31.676Z,10.50
2023-03-14T19:03:59.209Z,10.40
2023-03-14T19:06:27.994Z,10.40
2023-03-14T19:08:54.886Z,10.40
2023-03-14T19:11:21.750Z,10.40
2023-03-14T19:13:48.715Z,10.40
2023-03-14T19:16:16.118Z,10.40
2023-03-14T19:18:43.159Z,10.40
2023-03-14T19:21:12.441Z,10.40
2023-03-14T19:23:40.144Z,10.40
2023-03-14T19:26:07.388Z,10.40
2023-03-14T19:28:34.338Z,10.40
2023-03-14T19:31:05.275Z,10.40
2023-03-14T19:33:32.491Z,10.40
2023-03-14T19:35:59.492Z,10.30
2023-03-14T19:38:26.446Z,10.30
2023-03-14T19:40:56.576Z,10.30
2023-03-14T19:43:23.554Z,10.30
2023-03-14T19:45:50.541Z,10.30
2023-03-14T19:48:17.633Z,10.30
2023-03-14T19:50:44.713Z,10.30
2023-03-14T19:53:11.716Z,10.30
2023-03-14T19:55:38.653Z,10.20
2023-03-14T19:58:05.637Z,10.20
2023-03-14T20:00:32.566Z,10.20
2023-03-14T20:02:59.719Z,10.20
2023-03-14T20:05:26.657Z,10.20
2023-03-14T20:07:53.533Z,10.20
2023-03-14T20:10:24.575Z,10.10
2023-03-14T20:12:51.854Z,10.10
2023-03-14T20:15:20.069Z,10.10
2023-03-14T20:17:48.311Z,10.10
2023-03-14T20:20:15.288Z,10.10
2023-03-14T20:22:42.202Z,10.10
2023-03-14T20:25:10.485Z,10.00
2023-03-14T20:27:37.695Z,10.00
2023-03-14T20:30:11.127Z,10.00
2023-03-14T20:32:38.412Z,10.00
2023-03-14T20:35:05.783Z,10.00
2023-03-14T20:37:32.961Z,9.90
2023-03-14T20:39:59.931Z,9.90
2023-03-14T20:42:27.294Z,9.80
2023-03-14T20:44:54.720Z,9.80
2023-03-14T20:47:21.763Z,9.80
2023-03-14T20:49:48.743Z,9.80
2023-03-14T20:52:16.002Z,9.80
2023-03-14T20:54:42.906Z,9.70
2023-03-14T20:57:09.877Z,9.70
2023-03-14T20:59:38.192Z,9.70
2023-03-14T21:02:06.125Z,9.70
2023-03-14T21:04:34.432Z,9.70
2023-03-14T21:07:01.384Z,9.70
2023-03-14T21:09:28.291Z,9.60
2023-03-14T21:11:55.429Z,9.60
2023-03-14T21:14:22.820Z,9.60
2023-03-14T21:16:50.481Z,9.60
2023-03-14T21:19:17.491Z,9.60
2023-03-14T21:21:44.402Z,9.60
2023-03-14T21:24:11.405Z,9.50
2023-03-14T21:26:38.280Z,9.50
2023-03-14T21:29:05.167Z,9.50
2023-03-14T21:31:32.222Z,9.50
2023-03-14T21:33:59.253Z,9.50
2023-03-14T21:36:26.336Z,9.50
2023-03-14T21:38:53.302Z,9.50
2023-03-14T21:41:20.188Z,9.50
2023-03-14T21:43:47.107Z,9.50
2023-03-14T21:46:14.044Z,9.40
2023-03-14T21:48:41.026Z,9.50
2023-03-14T21:51:07.924Z,9.50
2023-03-14T21:53:35.234Z,9.50
2023-03-14T21:56:02.280Z,9.50
2023-03-14T21:58:29.218Z,9.50
2023-03-14T22:01:02.721Z,9.50
2023-03-14T22:03:34.187Z,9.50
2023-03-14T22:06:01.833Z,9.50
2023-03-14T22:08:29.075Z,9.50
2023-03-14T22:10:58.188Z,9.50
2023-03-14T22:13:25.703Z,9.50
2023-03-14T22:15:52.756Z,9.50
2023-03-14T22:18:19.681Z,9.50
2023-03-14T22:20:46.528Z,9.50
2023-03-14T22:23:13.435Z,9.50
2023-03-14T22:25:52.920Z,9.50
2023-03-14T22:28:20.473Z,9.50
2023-03-14T22:30:49.971Z,9.50
2023-03-14T22:33:18.208Z,9.50
2023-03-14T22:35:49.304Z,9.50
2023-03-14T22:38:16.250Z,9.50
2023-03-14T22:40:43.233Z,9.50
2023-03-14T22:43:10.237Z,9.50
2023-03-14T22:45:37.366Z,9.50
2023-03-14T22:48:04.420Z,9.50
2023-03-14T22:50:31.778Z,9.50
2023-03-14T22:52:59.037Z,9.50
2023-03-14T22:55:26.393Z,9.50
2023-03-14T22:57:53.795Z,9.50
2023-03-14T23:00:21.310Z,9.50
2023-03-14T23:02:48.560Z,9.50
2023-03-14T23:05:15.535Z,9.60
2023-03-14T23:07:42.454Z,9.60
2023-03-14T23:10:10.366Z,9.60
2023-03-14T23:12:37.346Z,9.50
2023-03-14T23:15:07.429Z,9.50
2023-03-14T23:17:34.589Z,9.60
2023-03-14T23:20:01.593Z,9.60
2023-03-14T23:22:29.193Z,9.60
2023-03-14T23:24:56.079Z,9.60
2023-03-14T23:27:23.028Z,9.60
2023-03-14T23:29:49.928Z,9.60
2023-03-14T23:32:17.228Z,9.60
2023-03-14T23:34:44.469Z,9.60
2023-03-14T23:37:14.259Z,9.50
2023-03-14T23:39:41.646Z,9.60
2023-03-14T23:42:08.621Z,9.50
2023-03-14T23:44:35.888Z,9.60
2023-03-14T23:47:03.703Z,9.60
2023-03-14T23:49:30.716Z,9.60
2023-03-14T23:51:57.600Z,9.50
2023-03-14T23:54:24.544Z,9.50
2023-03-14T23:56:51.933Z,9.50
2023-03-14T23:59:18.998Z,9.50
